sensor_id;sensor_type;location;lat;lon;timestamp;pressure;altitude;pressure_sealevel;temperature;humidity
829;BME280;396;52.558;13.188;2024-02-04T00:00:54;101212.88;;;8.31;100.00
829;BME280;396;52.558;13.188;2024-02-04T00:03:20;101214.25;;;8.28;100.00
829;BME280;396;52.558;13.188;2024-02-04T00:05:48;101210.16;;;8.31;100.00
829;BME280;396;52.558;13.188;2024-02-04T00:08:15;101223.94;;;8.34;100.00
829;BME280;396;52.558;13.188;2024-02-04T00:10:42;101217.47;;;8.35;100.00
829;BME280;396;52.558;13.188;2024-02-04T00:13:09;101225.59;;;8.41;100.00
829;BME280;396;52.558;13.188;2024-02-04T00:15:35;101207.25;;;8.38;100.00
829;BME280;396;52.558;13.188;2024-02-04T00:18:03;101221.25;;;8.29;100.00
829;BME280;396;52.558;13.188;2024-02-04T00:20:31;101219.06;;;8.31;100.00
829;BME280;396;52.558;13.188;2024-02-04T00:22:59;101225.56;;;8.35;100.00
829;BME280;396;52.558;13.188;2024-02-04T00:25:25;101221.81;;;8.37;100.00
829;BME280;396;52.558;13.188;2024-02-04T00:27:54;101231.53;;;8.38;100.00
829;BME280;396;52.558;13.188;2024-02-04T00:30:21;101227.72;;;8.28;100.00
829;BME280;396;52.558;13.188;2024-02-04T00:32:47;101222.88;;;8.20;100.00
829;BME280;396;52.558;13.188;2024-02-04T00:35:15;101218.53;;;8.14;100.00
829;BME280;396;52.558;13.188;2024-02-04T00:37:42;101216.91;;;8.08;100.00
829;BME280;396;52.558;13.188;2024-02-04T00:40:10;101204.22;;;7.98;100.00
829;BME280;396;52.558;13.188;2024-02-04T00:42:37;101199.06;;;7.81;100.00
829;BME280;396;52.558;13.188;2024-02-04T00:45:04;101193.41;;;7.78;100.00
829;BME280;396;52.558;13.188;2024-02-04T00:47:30;101210.66;;;7.77;100.00
829;BME280;396;52.558;13.188;2024-02-04T00:49:57;101213.09;;;7.78;100.00
829;BME280;396;52.558;13.188;2024-02-04T00:52:25;101199.06;;;7.76;98.66
829;BME280;396;52.558;13.188;2024-02-04T00:54:51;101205.00;;;7.73;98.67
829;BME280;396;52.558;13.188;2024-02-04T00:57:18;101195.81;;;7.64;99.61
829;BME280;396;52.558;13.188;2024-02-04T00:59:44;101197.69;;;7.53;99.14
829;BME280;396;52.558;13.188;2024-02-04T01:02:11;101204.97;;;7.53;99.44
829;BME280;396;52.558;13.188;2024-02-04T01:04:38;101197.09;;;7.46;99.81
829;BME280;396;52.558;13.188;2024-02-04T01:07:05;101195.19;;;7.42;100.00
829;BME280;396;52.558;13.188;2024-02-04T01:09:33;101201.66;;;7.36;100.00
829;BME280;396;52.558;13.188;2024-02-04T01:11:59;101190.34;;;7.39;100.00
829;BME280;396;52.558;13.188;2024-02-04T01:14:26;101186.53;;;7.34;100.00
829;BME280;396;52.558;13.188;2024-02-04T01:16:53;101184.91;;;7.28;100.00
829;BME280;396;52.558;13.188;2024-02-04T01:19:19;101197.00;;;7.21;100.00
829;BME280;396;52.558;13.188;2024-02-04T01:21:46;101207.53;;;7.22;100.00
829;BME280;396;52.558;13.188;2024-02-04T01:24:13;101205.88;;;7.21;100.00
829;BME280;396;52.558;13.188;2024-02-04T01:26:41;101204.28;;;7.20;100.00
829;BME280;396;52.558;13.188;2024-02-04T01:29:07;101202.16;;;7.22;100.00
829;BME280;396;52.558;13.188;2024-02-04T01:31:34;101217.50;;;7.22;100.00
829;BME280;396;52.558;13.188;2024-02-04T01:34:01;101209.13;;;7.18;100.00
829;BME280;396;52.558;13.188;2024-02-04T01:36:28;101202.66;;;7.14;100.00
829;BME280;396;52.558;13.188;2024-02-04T01:38:55;101200.97;;;7.08;100.00
829;BME280;396;52.558;13.188;2024-02-04T01:41:21;101207.72;;;7.05;100.00
829;BME280;396;52.558;13.188;2024-02-04T01:43:51;101208.25;;;7.02;100.00
829;BME280;396;52.558;13.188;2024-02-04T01:46:18;101208.50;;;7.01;100.00
829;BME280;396;52.558;13.188;2024-02-04T01:48:45;101210.41;;;7.00;100.00
829;BME280;396;52.558;13.188;2024-02-04T01:51:13;101208.25;;;7.02;100.00
829;BME280;396;52.558;13.188;2024-02-04T01:53:42;101199.34;;;7.02;100.00
829;BME280;396;52.558;13.188;2024-02-04T01:56:11;101191.78;;;6.99;100.00
829;BME280;396;52.558;13.188;2024-02-04T01:58:39;101197.44;;;6.97;100.00
829;BME280;396;52.558;13.188;2024-02-04T02:01:07;101199.31;;;6.92;100.00
829;BME280;396;52.558;13.188;2024-02-04T02:03:35;101201.75;;;6.98;100.00
829;BME280;396;52.558;13.188;2024-02-04T02:06:03;101202.56;;;6.99;100.00
829;BME280;396;52.558;13.188;2024-02-04T02:08:29;101183.72;;;6.99;100.00
829;BME280;396;52.558;13.188;2024-02-04T02:11:02;101195.28;;;6.99;100.00
829;BME280;396;52.558;13.188;2024-02-04T02:13:32;101179.41;;;6.98;100.00
829;BME280;396;52.558;13.188;2024-02-04T02:16:07;101166.50;;;7.05;100.00
829;BME280;396;52.558;13.188;2024-02-04T02:18:38;101145.75;;;6.95;100.00
829;BME280;396;52.558;13.188;2024-02-04T02:21:16;101148.44;;;6.95;100.00
829;BME280;396;52.558;13.188;2024-02-04T02:23:50;101161.03;;;6.90;100.00
829;BME280;396;52.558;13.188;2024-02-04T02:26:21;101167.53;;;6.94;100.00
829;BME280;396;52.558;13.188;2024-02-04T02:28:48;101170.78;;;6.96;100.00
829;BME280;396;52.558;13.188;2024-02-04T02:31:15;101172.69;;;7.00;100.00
829;BME280;396;52.558;13.188;2024-02-04T02:33:42;101169.44;;;6.98;100.00
829;BME280;396;52.558;13.188;2024-02-04T02:36:13;101172.13;;;6.98;100.00
829;BME280;396;52.558;13.188;2024-02-04T02:38:45;101180.19;;;6.98;100.00
829;BME280;396;52.558;13.188;2024-02-04T02:41:15;101174.53;;;6.95;100.00
829;BME280;396;52.558;13.188;2024-02-04T02:43:44;101172.41;;;6.97;100.00
829;BME280;396;52.558;13.188;2024-02-04T02:46:13;101180.47;;;6.92;100.00
829;BME280;396;52.558;13.188;2024-02-04T02:48:40;101187.47;;;6.98;100.00
829;BME280;396;52.558;13.188;2024-02-04T02:51:06;101182.66;;;7.00;100.00
829;BME280;396;52.558;13.188;2024-02-04T02:53:33;101179.69;;;7.01;100.00
829;BME280;396;52.558;13.188;2024-02-04T02:55:59;101178.38;;;7.04;100.00
829;BME280;396;52.558;13.188;2024-02-04T02:58:26;101176.75;;;7.08;100.00
829;BME280;396;52.558;13.188;2024-02-04T03:00:54;101170.31;;;7.09;100.00
829;BME280;396;52.558;13.188;2024-02-04T03:03:21;101167.63;;;7.14;100.00
829;BME280;396;52.558;13.188;2024-02-04T03:05:47;101171.66;;;7.17;100.00
829;BME280;396;52.558;13.188;2024-02-04T03:08:14;101166.31;;;7.22;100.00
829;BME280;396;52.558;13.188;2024-02-04T03:10:41;101165.47;;;7.21;100.00
829;BME280;396;52.558;13.188;2024-02-04T03:13:07;101160.94;;;7.22;100.00
829;BME280;396;52.558;13.188;2024-02-04T03:15:34;101164.44;;;7.22;100.00
829;BME280;396;52.558;13.188;2024-02-04T03:18:02;101168.47;;;7.30;100.00
829;BME280;396;52.558;13.188;2024-02-04T03:20:29;101170.38;;;7.29;100.00
829;BME280;396;52.558;13.188;2024-02-04T03:22:55;101166.63;;;7.36;100.00
829;BME280;396;52.558;13.188;2024-02-04T03:25:22;101173.91;;;7.35;100.00
829;BME280;396;52.558;13.188;2024-02-04T03:27:51;101163.13;;;7.40;100.00
829;BME280;396;52.558;13.188;2024-02-04T03:30:18;101155.03;;;7.35;100.00
829;BME280;396;52.558;13.188;2024-02-04T03:32:45;101155.59;;;7.42;100.00
829;BME280;396;52.558;13.188;2024-02-04T03:35:13;101147.50;;;7.42;100.00
829;BME280;396;52.558;13.188;2024-02-04T03:37:40;101155.06;;;7.50;100.00
829;BME280;396;52.558;13.188;2024-02-04T03:40:07;101149.69;;;7.55;100.00
829;BME280;396;52.558;13.188;2024-02-04T03:42:34;101139.72;;;7.56;100.00
829;BME280;396;52.558;13.188;2024-02-04T03:45:00;101137.00;;;7.56;100.00
829;BME280;396;52.558;13.188;2024-02-04T03:47:28;101128.69;;;7.57;100.00
829;BME280;396;52.558;13.188;2024-02-04T03:49:55;101133.78;;;7.59;100.00
829;BME280;396;52.558;13.188;2024-02-04T03:52:23;101127.59;;;7.53;100.00
829;BME280;396;52.558;13.188;2024-02-04T03:54:49;101132.41;;;7.51;100.00
829;BME280;396;52.558;13.188;2024-02-04T03:57:16;101131.09;;;7.49;100.00
829;BME280;396;52.558;13.188;2024-02-04T03:59:44;101134.03;;;7.42;100.00
829;BME280;396;52.558;13.188;2024-02-04T04:02:11;101128.09;;;7.40;100.00
829;BME280;396;52.558;13.188;2024-02-04T04:04:39;101125.66;;;7.33;100.00
829;BME280;396;52.558;13.188;2024-02-04T04:07:06;101124.56;;;7.34;100.00
829;BME280;396;52.558;13.188;2024-02-04T04:09:34;101120.81;;;7.30;100.00
829;BME280;396;52.558;13.188;2024-02-04T04:12:01;101123.50;;;7.30;100.00
829;BME280;396;52.558;13.188;2024-02-04T04:14:27;101125.09;;;7.26;100.00
829;BME280;396;52.558;13.188;2024-02-04T04:16:54;101109.75;;;7.22;100.00
829;BME280;396;52.558;13.188;2024-02-04T04:19:21;101112.16;;;7.23;100.00
829;BME280;396;52.558;13.188;2024-02-04T04:21:47;101109.97;;;7.20;100.00
829;BME280;396;52.558;13.188;2024-02-04T04:24:14;101112.13;;;7.13;100.00
829;BME280;396;52.558;13.188;2024-02-04T04:26:42;101112.66;;;7.10;100.00
829;BME280;396;52.558;13.188;2024-02-04T04:29:09;101106.19;;;7.11;100.00
829;BME280;396;52.558;13.188;2024-02-04T04:31:35;101101.06;;;7.04;100.00
829;BME280;396;52.558;13.188;2024-02-04T04:34:02;101104.81;;;7.03;100.00
829;BME280;396;52.558;13.188;2024-02-04T04:36:28;101094.56;;;6.95;100.00
829;BME280;396;52.558;13.188;2024-02-04T04:38:55;101106.41;;;6.94;100.00
829;BME280;396;52.558;13.188;2024-02-04T04:41:22;101096.47;;;7.00;100.00
829;BME280;396;52.558;13.188;2024-02-04T04:43:50;101089.72;;;6.97;100.00
829;BME280;396;52.558;13.188;2024-02-04T04:46:16;101103.72;;;6.99;100.00
829;BME280;396;52.558;13.188;2024-02-04T04:48:42;101088.13;;;7.01;100.00
829;BME280;396;52.558;13.188;2024-02-04T04:51:08;101101.59;;;7.01;100.00
829;BME280;396;52.558;13.188;2024-02-04T04:53:36;101086.50;;;6.95;100.00
829;BME280;396;52.558;13.188;2024-02-04T04:56:03;101080.81;;;6.92;100.00
829;BME280;396;52.558;13.188;2024-02-04T04:58:30;101072.47;;;6.88;100.00
829;BME280;396;52.558;13.188;2024-02-04T05:00:58;101068.94;;;6.82;100.00
829;BME280;396;52.558;13.188;2024-02-04T05:03:24;101068.13;;;6.82;100.00
829;BME280;396;52.558;13.188;2024-02-04T05:05:51;101074.03;;;6.79;100.00
829;BME280;396;52.558;13.188;2024-02-04T05:08:17;101064.88;;;6.80;100.00
829;BME280;396;52.558;13.188;2024-02-04T05:10:44;101068.09;;;6.77;100.00
829;BME280;396;52.558;13.188;2024-02-04T05:13:11;101062.69;;;6.72;100.00
829;BME280;396;52.558;13.188;2024-02-04T05:15:37;101067.28;;;6.71;100.00
829;BME280;396;52.558;13.188;2024-02-04T05:18:05;101060.56;;;6.74;100.00
829;BME280;396;52.558;13.188;2024-02-04T05:20:32;101068.38;;;6.75;100.00
829;BME280;396;52.558;13.188;2024-02-04T05:23:00;101049.00;;;6.73;100.00
829;BME280;396;52.558;13.188;2024-02-04T05:25:26;101055.19;;;6.74;100.00
829;BME280;396;52.558;13.188;2024-02-04T05:27:53;101045.72;;;6.71;100.00
829;BME280;396;52.558;13.188;2024-02-04T05:30:19;101042.50;;;6.69;100.00
829;BME280;396;52.558;13.188;2024-02-04T05:32:46;101047.34;;;6.72;100.00
829;BME280;396;52.558;13.188;2024-02-04T05:35:14;101030.97;;;6.79;100.00
829;BME280;396;52.558;13.188;2024-02-04T05:37:40;101042.53;;;6.79;100.00
829;BME280;396;52.558;13.188;2024-02-04T05:40:07;101028.00;;;6.80;100.00
829;BME280;396;52.558;13.188;2024-02-04T05:42:34;101034.97;;;6.71;100.00
829;BME280;396;52.558;13.188;2024-02-04T05:45:02;101038.22;;;6.78;100.00
829;BME280;396;52.558;13.188;2024-02-04T05:47:29;101045.22;;;6.79;100.00
829;BME280;396;52.558;13.188;2024-02-04T05:49:55;101040.38;;;6.81;100.00
829;BME280;396;52.558;13.188;2024-02-04T05:52:23;101048.50;;;6.87;100.00
829;BME280;396;52.558;13.188;2024-02-04T05:54:50;101053.03;;;6.86;100.00
829;BME280;396;52.558;13.188;2024-02-04T05:57:16;101048.25;;;6.98;100.00
829;BME280;396;52.558;13.188;2024-02-04T05:59:43;101052.00;;;6.92;100.00
829;BME280;396;52.558;13.188;2024-02-04T06:02:12;101038.03;;;7.00;100.00
829;BME280;396;52.558;13.188;2024-02-04T06:04:38;101052.81;;;6.98;100.00
829;BME280;396;52.558;13.188;2024-02-04T06:07:05;101054.44;;;6.99;100.00
829;BME280;396;52.558;13.188;2024-02-04T06:09:33;101039.88;;;6.95;100.00
829;BME280;396;52.558;13.188;2024-02-04T06:12:00;101055.00;;;7.01;100.00
829;BME280;396;52.558;13.188;2024-02-04T06:14:26;101049.09;;;7.04;100.00
829;BME280;396;52.558;13.188;2024-02-04T06:16:53;101050.94;;;7.03;100.00
829;BME280;396;52.558;13.188;2024-02-04T06:19:19;101050.69;;;7.10;100.00
829;BME280;396;52.558;13.188;2024-02-04T06:21:46;101047.44;;;7.08;100.00
829;BME280;396;52.558;13.188;2024-02-04T06:24:12;101043.69;;;7.04;100.00
829;BME280;396;52.558;13.188;2024-02-04T06:26:40;101026.41;;;6.95;100.00
829;BME280;396;52.558;13.188;2024-02-04T06:29:07;101042.34;;;7.01;100.00
829;BME280;396;52.558;13.188;2024-02-04T06:31:34;101040.97;;;6.94;100.00
829;BME280;396;52.558;13.188;2024-02-04T06:34:00;101038.25;;;6.89;100.00
829;BME280;396;52.558;13.188;2024-02-04T06:36:27;101054.91;;;6.80;100.00
829;BME280;396;52.558;13.188;2024-02-04T06:38:54;101049.59;;;6.91;100.00
829;BME280;396;52.558;13.188;2024-02-04T06:41:20;101049.03;;;6.89;100.00
829;BME280;396;52.558;13.188;2024-02-04T06:43:48;101064.38;;;6.83;100.00
829;BME280;396;52.558;13.188;2024-02-04T06:46:23;101061.91;;;6.81;100.00
829;BME280;396;52.558;13.188;2024-02-04T06:48:50;101068.41;;;6.86;100.00
829;BME280;396;52.558;13.188;2024-02-04T06:51:17;101069.75;;;6.83;100.00
829;BME280;396;52.558;13.188;2024-02-04T06:53:43;101068.94;;;6.82;100.00
829;BME280;396;52.558;13.188;2024-02-04T06:56:10;101071.88;;;6.86;100.00
829;BME280;396;52.558;13.188;2024-02-04T06:58:37;101063.81;;;6.81;100.00
829;BME280;396;52.558;13.188;2024-02-04T07:01:05;101068.97;;;6.88;100.00
829;BME280;396;52.558;13.188;2024-02-04T07:03:32;101046.59;;;6.87;100.00
829;BME280;396;52.558;13.188;2024-02-04T07:05:59;101060.59;;;6.89;100.00
829;BME280;396;52.558;13.188;2024-02-04T07:08:26;101051.44;;;6.90;100.00
829;BME280;396;52.558;13.188;2024-02-04T07:10:53;101053.34;;;6.90;100.00
829;BME280;396;52.558;13.188;2024-02-04T07:13:19;101047.44;;;6.93;100.00
829;BME280;396;52.558;13.188;2024-02-04T07:15:46;101044.22;;;6.96;100.00
829;BME280;396;52.558;13.188;2024-02-04T07:18:14;101038.56;;;6.97;100.00
829;BME280;396;52.558;13.188;2024-02-04T07:20:42;101027.78;;;6.97;100.00
829;BME280;396;52.558;13.188;2024-02-04T07:23:09;101032.63;;;7.00;100.00
829;BME280;396;52.558;13.188;2024-02-04T07:25:36;101030.75;;;7.01;100.00
829;BME280;396;52.558;13.188;2024-02-04T07:28:02;101033.44;;;7.01;100.00
829;BME280;396;52.558;13.188;2024-02-04T07:30:29;101043.94;;;7.02;100.00
829;BME280;396;52.558;13.188;2024-02-04T07:32:56;101046.41;;;7.04;100.00
829;BME280;396;52.558;13.188;2024-02-04T07:35:24;101040.72;;;7.05;100.00
829;BME280;396;52.558;13.188;2024-02-04T07:37:50;101024.03;;;7.08;100.00
829;BME280;396;52.558;13.188;2024-02-04T07:40:17;101025.38;;;7.06;100.00
829;BME280;396;52.558;13.188;2024-02-04T07:42:44;101017.84;;;7.13;100.00
829;BME280;396;52.558;13.188;2024-02-04T07:45:10;101007.59;;;7.20;100.00
829;BME280;396;52.558;13.188;2024-02-04T07:47:37;101002.50;;;7.19;100.00
829;BME280;396;52.558;13.188;2024-02-04T07:50:04;100994.13;;;7.20;100.00
829;BME280;396;52.558;13.188;2024-02-04T07:52:33;100984.16;;;7.21;100.00
829;BME280;396;52.558;13.188;2024-02-04T07:54:59;100986.63;;;7.27;100.00
829;BME280;396;52.558;13.188;2024-02-04T07:57:26;100985.00;;;7.31;100.00
829;BME280;396;52.558;13.188;2024-02-04T07:59:52;100986.34;;;7.34;100.00
829;BME280;396;52.558;13.188;2024-02-04T08:02:19;101002.25;;;7.41;100.00
829;BME280;396;52.558;13.188;2024-02-04T08:04:46;101000.63;;;7.45;100.00
829;BME280;396;52.558;13.188;2024-02-04T08:07:12;100989.03;;;7.44;100.00
829;BME280;396;52.558;13.188;2024-02-04T08:09:41;100984.19;;;7.51;100.00
829;BME280;396;52.558;13.188;2024-02-04T08:12:08;100976.91;;;7.52;100.00
829;BME280;396;52.558;13.188;2024-02-04T08:14:35;100986.63;;;7.53;100.00
829;BME280;396;52.558;13.188;2024-02-04T08:17:01;100987.13;;;7.55;100.00
829;BME280;396;52.558;13.188;2024-02-04T08:19:28;100993.91;;;7.57;100.00
829;BME280;396;52.558;13.188;2024-02-04T08:21:55;100992.78;;;7.64;100.00
829;BME280;396;52.558;13.188;2024-02-04T08:24:21;100989.28;;;7.63;100.00
829;BME280;396;52.558;13.188;2024-02-04T08:26:49;100975.53;;;7.70;100.00
829;BME280;396;52.558;13.188;2024-02-04T08:29:16;100968.50;;;7.74;100.00
829;BME280;396;52.558;13.188;2024-02-04T08:31:42;100975.78;;;7.73;100.00
829;BME280;396;52.558;13.188;2024-02-04T08:34:09;100973.63;;;7.80;99.30
829;BME280;396;52.558;13.188;2024-02-04T08:36:36;100967.13;;;7.87;98.73
829;BME280;396;52.558;13.188;2024-02-04T08:39:02;100961.75;;;7.87;98.55
829;BME280;396;52.558;13.188;2024-02-04T08:41:29;100954.47;;;7.87;97.11
829;BME280;396;52.558;13.188;2024-02-04T08:43:57;100949.88;;;7.93;97.03
829;BME280;396;52.558;13.188;2024-02-04T08:46:24;100952.84;;;7.91;97.42
829;BME280;396;52.558;13.188;2024-02-04T08:48:50;100955.28;;;7.93;97.44
829;BME280;396;52.558;13.188;2024-02-04T08:51:17;100963.06;;;7.99;97.00
829;BME280;396;52.558;13.188;2024-02-04T08:53:45;100961.16;;;8.05;96.40
829;BME280;396;52.558;13.188;2024-02-04T08:56:11;100960.66;;;7.98;95.97
829;BME280;396;52.558;13.188;2024-02-04T08:58:38;100960.66;;;7.98;95.77
829;BME280;396;52.558;13.188;2024-02-04T09:01:06;100956.31;;;7.97;96.61
829;BME280;396;52.558;13.188;2024-02-04T09:03:33;100962.53;;;8.02;96.31
829;BME280;396;52.558;13.188;2024-02-04T09:05:59;100956.81;;;8.09;95.02
829;BME280;396;52.558;13.188;2024-02-04T09:08:26;100961.41;;;8.14;94.70
829;BME280;396;52.558;13.188;2024-02-04T09:10:53;100945.19;;;8.19;93.97
829;BME280;396;52.558;13.188;2024-02-04T09:13:19;100956.25;;;8.22;93.74
829;BME280;396;52.558;13.188;2024-02-04T09:15:46;100949.78;;;8.18;94.38
829;BME280;396;52.558;13.188;2024-02-04T09:18:14;100940.63;;;8.19;94.23
829;BME280;396;52.558;13.188;2024-02-04T09:20:40;100951.91;;;8.26;94.12
829;BME280;396;52.558;13.188;2024-02-04T09:23:07;100947.34;;;8.22;93.56
829;BME280;396;52.558;13.188;2024-02-04T09:25:34;100953.28;;;8.24;93.71
829;BME280;396;52.558;13.188;2024-02-04T09:28:00;100946.47;;;8.31;92.65
829;BME280;396;52.558;13.188;2024-02-04T09:30:27;100953.78;;;8.31;93.02
829;BME280;396;52.558;13.188;2024-02-04T09:32:53;100946.50;;;8.42;91.49
829;BME280;396;52.558;13.188;2024-02-04T09:35:21;100951.84;;;8.47;90.69
829;BME280;396;52.558;13.188;2024-02-04T09:37:48;100957.81;;;8.39;91.28
829;BME280;396;52.558;13.188;2024-02-04T09:40:15;100959.38;;;8.50;91.03
829;BME280;396;52.558;13.188;2024-02-04T09:42:42;100949.63;;;8.54;90.24
829;BME280;396;52.558;13.188;2024-02-04T09:45:09;100954.28;;;8.48;91.50
829;BME280;396;52.558;13.188;2024-02-04T09:47:38;100948.53;;;8.60;89.14
829;BME280;396;52.558;13.188;2024-02-04T09:50:06;100937.19;;;8.58;89.64
829;BME280;396;52.558;13.188;2024-02-04T09:52:39;100945.78;;;8.70;88.16
829;BME280;396;52.558;13.188;2024-02-04T09:55:07;100947.09;;;8.78;87.31
829;BME280;396;52.558;13.188;2024-02-04T09:57:36;100928.44;;;8.76;87.62
829;BME280;396;52.558;13.188;2024-02-04T10:00:03;100938.44;;;8.81;86.50
829;BME280;396;52.558;13.188;2024-02-04T10:02:32;100924.34;;;8.84;86.21
829;BME280;396;52.558;13.188;2024-02-04T10:04:58;100937.31;;;8.87;85.31
829;BME280;396;52.558;13.188;2024-02-04T10:07:26;100939.13;;;8.97;83.69
829;BME280;396;52.558;13.188;2024-02-04T10:09:55;100946.41;;;8.96;82.71
829;BME280;396;52.558;13.188;2024-02-04T10:12:21;100927.81;;;8.95;82.91
829;BME280;396;52.558;13.188;2024-02-04T10:14:48;100925.09;;;8.95;83.44
829;BME280;396;52.558;13.188;2024-02-04T10:17:15;100929.91;;;8.98;83.76
829;BME280;396;52.558;13.188;2024-02-04T10:19:42;100912.31;;;9.05;81.99
829;BME280;396;52.558;13.188;2024-02-04T10:22:09;100920.63;;;9.14;81.53
829;BME280;396;52.558;13.188;2024-02-04T10:24:35;100918.97;;;9.18;81.07
829;BME280;396;52.558;13.188;2024-02-04T10:27:04;100917.91;;;9.14;81.79
829;BME280;396;52.558;13.188;2024-02-04T10:29:31;100913.56;;;9.18;80.80
829;BME280;396;52.558;13.188;2024-02-04T10:31:57;100900.03;;;9.18;81.12
829;BME280;396;52.558;13.188;2024-02-04T10:34:25;100898.38;;;9.22;80.17
829;BME280;396;52.558;13.188;2024-02-04T10:36:52;100900.25;;;9.27;79.78
829;BME280;396;52.558;13.188;2024-02-04T10:39:19;100911.81;;;9.32;78.95
829;BME280;396;52.558;13.188;2024-02-04T10:41:49;100897.25;;;9.28;80.44
829;BME280;396;52.558;13.188;2024-02-04T10:44:21;100890.53;;;9.21;78.81
829;BME280;396;52.558;13.188;2024-02-04T10:46:49;100895.16;;;9.20;79.27
829;BME280;396;52.558;13.188;2024-02-04T10:49:18;100893.31;;;9.16;78.88
829;BME280;396;52.558;13.188;2024-02-04T10:51:46;100899.44;;;9.26;78.67
829;BME280;396;52.558;13.188;2024-02-04T10:54:15;100884.31;;;9.25;79.44
829;BME280;396;52.558;13.188;2024-02-04T10:56:44;100890.22;;;9.27;79.63
829;BME280;396;52.558;13.188;2024-02-04T10:59:11;100885.88;;;9.31;78.41
829;BME280;396;52.558;13.188;2024-02-04T11:01:40;100889.94;;;9.29;78.78
829;BME280;396;52.558;13.188;2024-02-04T11:04:09;100880.75;;;9.30;79.13
829;BME280;396;52.558;13.188;2024-02-04T11:06:37;100880.13;;;9.38;78.09
829;BME280;396;52.558;13.188;2024-02-04T11:09:05;100880.13;;;9.38;78.21
829;BME280;396;52.558;13.188;2024-02-04T11:11:32;100872.84;;;9.33;78.49
829;BME280;396;52.558;13.188;2024-02-04T11:14:02;100889.31;;;9.37;78.12
829;BME280;396;52.558;13.188;2024-02-04T11:16:44;100888.47;;;9.42;77.76
829;BME280;396;52.558;13.188;2024-02-04T11:19:23;100893.88;;;9.42;77.34
829;BME280;396;52.558;13.188;2024-02-04T11:22:23;100874.94;;;9.42;77.30
829;BME280;396;52.558;13.188;2024-02-04T11:25:12;100867.69;;;9.37;78.21
829;BME280;396;52.558;13.188;2024-02-04T11:27:44;100861.84;;;9.30;78.23
829;BME280;396;52.558;13.188;2024-02-04T11:30:11;100864.31;;;9.26;78.91
829;BME280;396;52.558;13.188;2024-02-04T11:32:41;100868.09;;;9.25;79.15
829;BME280;396;52.558;13.188;2024-02-04T11:35:08;100867.06;;;9.21;79.57
829;BME280;396;52.558;13.188;2024-02-04T11:37:37;100854.34;;;9.22;77.84
829;BME280;396;52.558;13.188;2024-02-04T11:40:08;100835.38;;;9.27;78.24
829;BME280;396;52.558;13.188;2024-02-04T11:42:40;100847.03;;;9.22;78.42
829;BME280;396;52.558;13.188;2024-02-04T11:45:07;100819.03;;;9.13;77.37
829;BME280;396;52.558;13.188;2024-02-04T11:47:34;100813.31;;;9.15;78.23
829;BME280;396;52.558;13.188;2024-02-04T11:50:02;100813.00;;;9.21;78.17
829;BME280;396;52.558;13.188;2024-02-04T11:52:29;100803.69;;;9.32;77.81
829;BME280;396;52.558;13.188;2024-02-04T11:54:56;100810.66;;;9.39;78.14
829;BME280;396;52.558;13.188;2024-02-04T11:57:23;100797.75;;;9.54;76.29
829;BME280;396;52.558;13.188;2024-02-04T11:59:53;100806.16;;;9.53;77.09
829;BME280;396;52.558;13.188;2024-02-04T12:02:21;100812.81;;;9.60;76.91
829;BME280;396;52.558;13.188;2024-02-04T12:04:48;100805.22;;;9.63;75.08
829;BME280;396;52.558;13.188;2024-02-04T12:07:16;100808.00;;;9.57;74.53
829;BME280;396;52.558;13.188;2024-02-04T12:09:44;100799.34;;;9.55;74.32
829;BME280;396;52.558;13.188;2024-02-04T12:12:11;100801.63;;;9.48;75.41
829;BME280;396;52.558;13.188;2024-02-04T12:14:39;100813.06;;;9.40;75.31
829;BME280;396;52.558;13.188;2024-02-04T12:17:07;100811.66;;;9.43;74.80
829;BME280;396;52.558;13.188;2024-02-04T12:19:34;100821.50;;;9.33;75.41
829;BME280;396;52.558;13.188;2024-02-04T12:22:01;100821.28;;;9.30;75.39
829;BME280;396;52.558;13.188;2024-02-04T12:24:35;100812.13;;;9.26;75.59
829;BME280;396;52.558;13.188;2024-02-04T12:27:02;100807.63;;;9.16;76.40
829;BME280;396;52.558;13.188;2024-02-04T12:29:29;100807.63;;;9.16;76.42
829;BME280;396;52.558;13.188;2024-02-04T12:31:59;100812.81;;;9.13;76.33
829;BME280;396;52.558;13.188;2024-02-04T12:34:26;100810.31;;;9.16;75.77
829;BME280;396;52.558;13.188;2024-02-04T12:36:57;100804.97;;;9.11;76.67
829;BME280;396;52.558;13.188;2024-02-04T12:39:25;100817.41;;;9.12;76.22
829;BME280;396;52.558;13.188;2024-02-04T12:41:53;100794.97;;;9.12;75.32
829;BME280;396;52.558;13.188;2024-02-04T12:44:20;100799.56;;;9.11;76.01
829;BME280;396;52.558;13.188;2024-02-04T12:46:50;100806.31;;;9.14;75.42
829;BME280;396;52.558;13.188;2024-02-04T12:49:19;100794.09;;;9.16;75.65
829;BME280;396;52.558;13.188;2024-02-04T12:51:46;100803.06;;;9.17;74.79
829;BME280;396;52.558;13.188;2024-02-04T12:54:13;100797.41;;;9.13;75.34
829;BME280;396;52.558;13.188;2024-02-04T12:56:41;100797.34;;;9.18;74.26
829;BME280;396;52.558;13.188;2024-02-04T12:59:09;100794.09;;;9.16;74.41
829;BME280;396;52.558;13.188;2024-02-04T13:01:38;100795.44;;;9.19;74.36
829;BME280;396;52.558;13.188;2024-02-04T13:04:05;100794.66;;;9.18;73.97
829;BME280;396;52.558;13.188;2024-02-04T13:06:37;100811.19;;;9.12;75.40
829;BME280;396;52.558;13.188;2024-02-04T13:09:04;100808.22;;;9.13;74.75
829;BME280;396;52.558;13.188;2024-02-04T13:11:31;100838.97;;;9.17;74.67
829;BME280;396;52.558;13.188;2024-02-04T13:13:58;100801.09;;;9.22;74.61
829;BME280;396;52.558;13.188;2024-02-04T13:16:26;100816.78;;;9.20;74.37
829;BME280;396;52.558;13.188;2024-02-04T13:18:53;100815.69;;;9.21;74.34
829;BME280;396;52.558;13.188;2024-02-04T13:21:19;100810.81;;;9.23;74.34
829;BME280;396;52.558;13.188;2024-02-04T13:23:47;100824.56;;;9.27;74.40
829;BME280;396;52.558;13.188;2024-02-04T13:26:14;100812.47;;;9.19;75.29
829;BME280;396;52.558;13.188;2024-02-04T13:28:41;100807.13;;;9.14;75.46